Terminal Aerodrome Forecast
Issued by NWS Greer, SC

Home | Current Version | Previous Version | Text Only | Print | Product List | Glossary On
Versions: 1 2 3 4 5 6 7 8 9 10 11 12 13 14 15 16 17 18 19 20 21 22 23 24 25 26 27 28 29 30 31 32 33
000
FTUS42 KGSP 012341
TAFAVL
TAF
KAVL 012341Z 0200/0224 17006KT 5SM -SHRA BR OVC008
      TEMPO 0200/0202 6SM -SHRA BR SCT008 OVC013
     FM020900 30010KT 5SM -SHRA BR OVC015
     FM021200 34015G27KT P6SM OVC011
     FM021600 34020G36KT P6SM BKN021
     FM021800 34022G39KT P6SM BKN045
     FM022100 34016G28KT P6SM BKN050=

USA.gov is the U.S. government's official web portal to all federal, state and local government web resources and services.